createdAt,value
2022-10-22T00:02:01.588Z,9.35
2022-10-22T00:04:32.942Z,9.45
2022-10-22T00:07:02.652Z,8.43
2022-10-22T00:09:29.921Z,8.45
2022-10-22T00:11:57.179Z,10.60
2022-10-22T00:14:24.514Z,9.23
2022-10-22T00:16:51.759Z,9.65
2022-10-22T00:19:19.055Z,8.50
2022-10-22T00:21:46.305Z,8.50
2022-10-22T00:24:13.734Z,8.68
2022-10-22T00:26:40.998Z,8.68
2022-10-22T00:29:08.234Z,11.43
2022-10-22T00:31:35.971Z,8.93
2022-10-22T00:34:03.517Z,11.35
2022-10-22T00:36:30.768Z,9.50
2022-10-22T00:38:57.945Z,8.80
2022-10-22T00:41:25.265Z,8.82
2022-10-22T00:43:56.877Z,9.63
2022-10-22T00:46:24.140Z,9.05
2022-10-22T00:48:52.114Z,10.38
2022-10-22T00:51:21.822Z,10.68
2022-10-22T00:53:53.521Z,10.98
2022-10-22T00:56:21.618Z,8.98
2022-10-22T00:58:55.415Z,8.98
2022-10-22T01:01:26.121Z,9.73
2022-10-22T01:03:54.273Z,9.65
2022-10-22T01:06:26.797Z,10.98
2022-10-22T01:08:56.576Z,7.75
2022-10-22T01:11:40.296Z,11.13
2022-10-22T01:14:14.575Z,11.15
2022-10-22T01:17:04.073Z,10.77
2022-10-22T01:19:46.641Z,9.55
2022-10-22T01:22:26.441Z,10.30
2022-10-22T01:24:54.113Z,9.02
2022-10-22T01:27:30.116Z,8.98
2022-10-22T01:30:07.159Z,10.88
2022-10-22T01:32:39.098Z,9.50
2022-10-22T01:35:09.339Z,9.32
2022-10-22T01:37:43.545Z,8.60
2022-10-22T01:40:11.889Z,10.63
2022-10-22T01:42:39.216Z,10.95
2022-10-22T01:45:14.603Z,6.78
2022-10-22T01:48:13.442Z,9.23
2022-10-22T01:51:03.455Z,15.80
2022-10-22T01:53:57.053Z,8.80
2022-10-22T01:56:30.730Z,11.13
2022-10-22T01:59:13.121Z,9.50
2022-10-22T02:02:32.311Z,8.77
2022-10-22T02:05:01.460Z,13.07
2022-10-22T02:09:57.332Z,13.35
2022-10-22T02:12:25.610Z,11.45
2022-10-22T02:14:54.657Z,9.13
2022-10-22T02:19:57.380Z,8.73
2022-10-22T02:22:26.183Z,9.52
2022-10-22T02:24:53.417Z,8.93
2022-10-22T02:27:25.760Z,10.20
2022-10-22T02:30:07.885Z,11.30
2022-10-22T02:32:54.297Z,10.20
2022-10-22T02:35:22.902Z,11.23
2022-10-22T02:37:51.133Z,9.05
2022-10-22T02:40:19.040Z,12.93
2022-10-22T02:42:48.288Z,12.77
2022-10-22T02:45:17.113Z,10.98
2022-10-22T02:47:44.350Z,9.93
2022-10-22T02:50:11.870Z,9.68
2022-10-22T02:52:39.460Z,10.40
2022-10-22T02:55:07.424Z,13.65
2022-10-22T02:57:34.684Z,12.82
2022-10-22T03:00:01.919Z,11.57
2022-10-22T03:02:29.225Z,11.38
2022-10-22T03:04:56.405Z,10.18
2022-10-22T03:07:23.684Z,8.63
2022-10-22T03:09:50.956Z,11.00
2022-10-22T03:12:18.136Z,9.85
2022-10-22T03:14:45.412Z,8.85
2022-10-22T03:17:12.586Z,11.00
2022-10-22T03:19:40.092Z,11.68
2022-10-22T03:22:13.549Z,10.02
2022-10-22T03:24:42.621Z,11.38
2022-10-22T03:29:38.190Z,11.40
2022-10-22T03:32:05.564Z,11.35
2022-10-22T03:34:32.840Z,11.77
2022-10-22T03:37:02.075Z,13.00
2022-10-22T03:41:57.889Z,10.82
2022-10-22T03:44:25.423Z,10.70
2022-10-22T03:46:52.701Z,10.15
2022-10-22T03:49:19.984Z,9.30
2022-10-22T03:51:47.212Z,10.80
2022-10-22T03:54:14.572Z,9.32
2022-10-22T03:56:41.797Z,10.80
2022-10-22T03:59:09.045Z,10.18
2022-10-22T04:01:36.470Z,10.82
2022-10-22T04:04:03.726Z,9.52
2022-10-22T04:06:31.365Z,12.40
2022-10-22T04:08:59.717Z,10.07
2022-10-22T04:11:27.010Z,9.25
2022-10-22T04:13:54.251Z,8.80
2022-10-22T04:16:25.065Z,11.93
2022-10-22T04:18:54.742Z,12.93
2022-10-22T04:21:21.983Z,12.80
2022-10-22T04:23:50.704Z,9.80
2022-10-22T04:26:18.529Z,10.10
2022-10-22T04:28:46.149Z,11.40
2022-10-22T04:31:17.709Z,9.30
2022-10-22T04:33:45.002Z,10.45
2022-10-22T04:36:15.241Z,9.52
2022-10-22T04:38:43.593Z,14.15
2022-10-22T04:41:12.867Z,12.05
2022-10-22T04:43:40.375Z,11.65
2022-10-22T04:46:09.191Z,11.48
2022-10-22T04:48:36.932Z,13.45
2022-10-22T04:51:04.328Z,10.32
2022-10-22T04:53:31.640Z,10.68
2022-10-22T04:56:29.116Z,10.13
2022-10-22T04:59:05.135Z,11.43
2022-10-22T05:01:42.808Z,11.18
2022-10-22T05:04:13.309Z,10.00
2022-10-22T05:06:40.647Z,11.32
2022-10-22T05:09:19.879Z,11.95
2022-10-22T05:11:49.630Z,12.55
2022-10-22T05:14:19.993Z,10.63
2022-10-22T05:16:48.543Z,10.82
2022-10-22T05:19:42.579Z,13.00
2022-10-22T05:22:09.804Z,8.18
2022-10-22T05:24:37.466Z,10.48
2022-10-22T05:27:04.973Z,9.07
2022-10-22T05:29:32.327Z,10.43
2022-10-22T05:32:00.787Z,9.10
2022-10-22T05:34:27.991Z,11.48
2022-10-22T05:36:55.252Z,13.93
2022-10-22T05:39:22.524Z,9.82
2022-10-22T05:41:49.789Z,12.50
2022-10-22T05:44:16.988Z,10.23
2022-10-22T05:46:44.277Z,11.77
2022-10-22T05:49:14.151Z,9.02
2022-10-22T05:51:41.437Z,13.05
2022-10-22T05:54:10.952Z,14.90
2022-10-22T05:56:39.166Z,11.60
2022-10-22T05:59:06.368Z,9.18
2022-10-22T06:01:35.504Z,9.70
2022-10-22T06:04:05.962Z,12.00
2022-10-22T06:06:43.346Z,9.38
2022-10-22T06:09:13.673Z,10.52
2022-10-22T06:11:40.974Z,9.50
2022-10-22T06:14:08.198Z,11.57
2022-10-22T06:16:35.483Z,12.73
2022-10-22T06:19:02.980Z,7.25
2022-10-22T06:21:31.083Z,9.57
2022-10-22T06:23:59.013Z,9.05
2022-10-22T06:26:26.229Z,10.65
2022-10-22T06:28:54.272Z,15.55
2022-10-22T06:31:21.560Z,7.60
2022-10-22T06:33:48.792Z,11.40
2022-10-22T06:36:20.129Z,8.13
2022-10-22T06:38:47.669Z,11.13
2022-10-22T06:41:16.560Z,11.68
2022-10-22T06:43:47.653Z,8.98
2022-10-22T06:46:19.190Z,10.38
2022-10-22T06:49:01.423Z,11.70
2022-10-22T06:51:28.881Z,10.68
2022-10-22T06:53:56.918Z,10.93
2022-10-22T06:56:26.221Z,9.75
2022-10-22T06:58:55.704Z,12.57
2022-10-22T07:01:24.424Z,11.18
2022-10-22T07:03:52.653Z,7.93
2022-10-22T07:06:20.610Z,10.32
2022-10-22T07:08:47.919Z,9.95
2022-10-22T07:11:27.026Z,9.18
2022-10-22T07:13:54.978Z,8.95
2022-10-22T07:16:25.659Z,9.98
2022-10-22T07:18:55.229Z,8.30
2022-10-22T07:21:22.765Z,8.70
2022-10-22T07:23:50.125Z,11.02
2022-10-22T07:26:18.162Z,10.75
2022-10-22T07:28:45.456Z,8.60
2022-10-22T07:31:14.100Z,9.85
2022-10-22T07:33:41.460Z,9.25
2022-10-22T07:36:11.962Z,8.30
2022-10-22T07:38:39.252Z,11.98
2022-10-22T07:41:06.590Z,12.43
2022-10-22T07:43:33.873Z,10.48
2022-10-22T07:46:02.711Z,9.80
2022-10-22T07:48:30.277Z,13.35
2022-10-22T07:50:58.358Z,9.23
2022-10-22T07:53:25.594Z,12.48
2022-10-22T07:55:53.072Z,11.35
2022-10-22T07:58:21.072Z,9.45
2022-10-22T08:00:49.512Z,9.90
2022-10-22T08:03:17.740Z,8.77
2022-10-22T08:05:45.539Z,8.73
2022-10-22T08:08:13.646Z,9.38
2022-10-22T08:10:41.139Z,11.13
2022-10-22T08:13:08.469Z,8.82
2022-10-22T08:15:36.516Z,9.55
2022-10-22T08:18:03.813Z,10.95
2022-10-22T08:20:31.054Z,10.13
2022-10-22T08:22:59.398Z,10.73
2022-10-22T08:25:26.809Z,13.80
2022-10-22T08:27:54.084Z,11.10
2022-10-22T08:30:21.466Z,9.50
2022-10-22T08:32:51.628Z,10.25
2022-10-22T08:35:21.157Z,11.57
2022-10-22T08:37:48.343Z,11.23
2022-10-22T08:40:45.171Z,8.15
2022-10-22T08:43:12.486Z,11.20
2022-10-22T08:46:10.237Z,11.27
2022-10-22T08:48:43.805Z,12.73
2022-10-22T08:51:13.611Z,11.43
2022-10-22T08:53:53.502Z,11.45
2022-10-22T08:56:22.764Z,9.05
2022-10-22T08:58:57.288Z,14.05
2022-10-22T09:01:36.829Z,9.63
2022-10-22T09:04:26.442Z,7.55
2022-10-22T09:06:55.272Z,8.38
2022-10-22T09:09:22.718Z,11.07
2022-10-22T09:11:55.367Z,8.73
2022-10-22T09:14:26.264Z,8.95
2022-10-22T09:17:11.918Z,7.95
2022-10-22T09:19:57.249Z,8.80
2022-10-22T09:22:50.912Z,9.90
2022-10-22T09:25:37.637Z,10.63
2022-10-22T09:28:05.254Z,9.25
2022-10-22T09:30:34.539Z,11.13
2022-10-22T09:33:01.752Z,8.98
2022-10-22T09:35:29.121Z,10.18
2022-10-22T09:37:57.050Z,13.70
2022-10-22T09:40:24.931Z,13.05
2022-10-22T09:42:52.960Z,10.77
2022-10-22T09:45:25.300Z,12.38
2022-10-22T09:48:06.586Z,13.35
2022-10-22T09:50:46.805Z,8.45
2022-10-22T09:53:21.622Z,9.25
2022-10-22T09:58:22.374Z,9.88
2022-10-22T10:00:54.183Z,10.55
2022-10-22T10:03:24.867Z,10.48
2022-10-22T10:05:56.753Z,10.07
2022-10-22T10:08:25.048Z,10.38
2022-10-22T10:10:59.758Z,8.35
2022-10-22T10:13:42.419Z,10.60
2022-10-22T10:16:33.676Z,9.70
2022-10-22T10:19:15.161Z,10.63
2022-10-22T10:21:53.324Z,9.57
2022-10-22T10:24:38.793Z,11.20
2022-10-22T10:27:12.985Z,8.38
2022-10-22T10:29:49.393Z,10.27
2022-10-22T10:32:29.030Z,9.57
2022-10-22T10:35:17.498Z,14.63
2022-10-22T10:40:33.071Z,12.10
2022-10-22T10:45:55.724Z,9.20
2022-10-22T10:48:48.533Z,14.57
2022-10-22T10:51:34.289Z,12.20
2022-10-22T10:54:07.236Z,13.93
2022-10-22T10:56:42.066Z,9.35
2022-10-22T10:59:14.725Z,9.48
2022-10-22T11:01:44.720Z,8.70
2022-10-22T11:04:25.733Z,8.02
2022-10-22T11:06:56.342Z,11.32
2022-10-22T11:09:34.380Z,13.85
2022-10-22T11:12:05.401Z,10.85
2022-10-22T11:14:57.466Z,12.00
2022-10-22T11:17:26.401Z,9.68
2022-10-22T11:20:09.709Z,9.40
2022-10-22T11:23:21.211Z,12.45
2022-10-22T11:25:49.704Z,8.88
2022-10-22T11:28:29.740Z,10.52
2022-10-22T11:31:02.346Z,11.20
2022-10-22T11:33:38.279Z,13.55
2022-10-22T11:36:07.425Z,11.00
2022-10-22T11:43:58.458Z,11.60
2022-10-22T11:46:43.832Z,10.93
2022-10-22T11:49:14.150Z,6.75
2022-10-22T11:51:42.876Z,13.35
2022-10-22T11:54:42.226Z,10.73
2022-10-22T11:57:14.937Z,10.00
2022-10-22T11:59:49.595Z,9.77
2022-10-22T12:02:29.365Z,7.65
2022-10-22T12:05:19.127Z,8.98
2022-10-22T12:07:54.815Z,11.95
2022-10-22T12:10:23.804Z,9.63
2022-10-22T12:12:57.216Z,11.27
2022-10-22T12:15:27.470Z,9.52
2022-10-22T12:18:00.555Z,13.13
2022-10-22T12:20:28.457Z,12.38
2022-10-22T12:22:57.607Z,16.13
2022-10-22T12:25:26.100Z,10.18
2022-10-22T12:27:57.170Z,9.80
2022-10-22T12:30:26.737Z,10.45
2022-10-22T12:32:56.350Z,11.90
2022-10-22T12:35:25.746Z,10.98
2022-10-22T12:37:55.082Z,13.23
2022-10-22T12:40:22.422Z,11.80
2022-10-22T12:43:00.354Z,12.38
2022-10-22T12:45:34.333Z,11.98
2022-10-22T12:48:23.092Z,10.73
2022-10-22T12:50:53.321Z,16.73
2022-10-22T12:53:37.817Z,11.85
2022-10-22T12:56:42.084Z,12.88
2022-10-22T12:59:20.757Z,10.73
2022-10-22T13:01:50.039Z,14.52
2022-10-22T13:04:16.857Z,9.70
2022-10-22T13:06:52.248Z,10.25
2022-10-22T13:09:27.411Z,11.68
2022-10-22T13:12:03.145Z,11.10
2022-10-22T13:14:34.206Z,10.75
2022-10-22T13:17:08.239Z,8.65
2022-10-22T13:19:50.268Z,9.00
2022-10-22T13:25:05.609Z,8.82
2022-10-22T13:27:33.009Z,9.68
2022-10-22T13:30:03.716Z,10.95
2022-10-22T13:32:33.475Z,16.33
2022-10-22T13:35:02.375Z,14.40
2022-10-22T13:37:31.810Z,9.52
2022-10-22T13:39:59.181Z,13.48
2022-10-22T13:42:26.413Z,13.63
2022-10-22T13:44:53.683Z,15.82
2022-10-22T13:47:28.549Z,9.65
2022-10-22T13:50:12.982Z,10.65
2022-10-22T13:52:58.940Z,12.05
2022-10-22T13:55:29.289Z,10.32
2022-10-22T13:58:13.412Z,13.75
2022-10-22T14:00:43.309Z,15.25
2022-10-22T14:03:17.128Z,14.57
2022-10-22T14:05:46.300Z,18.90
2022-10-22T14:10:41.284Z,11.75
2022-10-22T14:13:16.203Z,14.70
2022-10-22T14:15:45.292Z,11.05
2022-10-22T14:20:43.000Z,11.20
2022-10-22T14:23:20.321Z,16.38
2022-10-22T14:25:47.947Z,13.38
2022-10-22T14:28:15.306Z,12.80
2022-10-22T14:30:42.484Z,11.90
2022-10-22T14:33:28.921Z,11.20
2022-10-22T14:36:00.077Z,14.27
2022-10-22T14:38:27.413Z,13.45
2022-10-22T14:40:54.842Z,11.77
2022-10-22T14:43:31.207Z,11.48
2022-10-22T14:45:58.530Z,12.98
2022-10-22T14:48:25.784Z,12.18
2022-10-22T14:50:53.099Z,13.43
2022-10-22T14:53:20.361Z,11.25
2022-10-22T14:55:49.145Z,16.45
2022-10-22T14:58:16.619Z,10.25
2022-10-22T15:00:44.042Z,16.92
2022-10-22T15:03:11.660Z,14.88
2022-10-22T15:05:45.173Z,12.45
2022-10-22T15:08:14.303Z,12.73
2022-10-22T15:13:08.796Z,12.73
2022-10-22T15:15:39.632Z,10.45
2022-10-22T15:18:07.401Z,13.85
2022-10-22T15:20:34.633Z,9.73
2022-10-22T15:23:01.902Z,11.30
2022-10-22T15:25:29.086Z,12.68
2022-10-22T15:28:01.834Z,11.23
2022-10-22T15:30:34.781Z,15.45
2022-10-22T15:33:02.292Z,15.88
2022-10-22T15:35:29.500Z,12.75
2022-10-22T15:37:56.787Z,11.77
2022-10-22T15:40:24.049Z,11.55
2022-10-22T15:42:51.270Z,9.88
2022-10-22T15:45:21.257Z,14.30
2022-10-22T15:47:49.311Z,11.68
2022-10-22T15:50:17.050Z,8.65
2022-10-22T15:52:44.266Z,13.75
2022-10-22T15:57:39.475Z,12.88
2022-10-22T16:00:07.425Z,10.05
2022-10-22T16:02:39.533Z,10.98
2022-10-22T16:05:07.124Z,10.45
2022-10-22T16:07:34.380Z,8.73
2022-10-22T16:10:01.789Z,9.48
2022-10-22T16:12:29.084Z,11.55
2022-10-22T16:14:56.396Z,10.68
2022-10-22T16:17:24.418Z,13.25
2022-10-22T16:19:51.639Z,16.60
2022-10-22T16:22:18.856Z,8.90
2022-10-22T16:24:46.291Z,10.52
2022-10-22T16:27:13.552Z,10.90
2022-10-22T16:29:40.983Z,10.32
2022-10-22T16:32:08.299Z,9.93
2022-10-22T16:34:35.491Z,9.10
2022-10-22T16:37:02.944Z,10.82
2022-10-22T16:39:30.206Z,8.95
2022-10-22T16:41:57.462Z,10.32
2022-10-22T16:44:24.804Z,14.23
2022-10-22T16:46:51.981Z,9.82
2022-10-22T16:49:19.217Z,10.10
2022-10-22T16:51:46.478Z,15.20
2022-10-22T16:54:15.603Z,11.07
2022-10-22T16:59:09.391Z,11.98
2022-10-22T17:01:40.615Z,9.02
2022-10-22T17:04:08.483Z,12.20
2022-10-22T17:06:35.703Z,14.65
2022-10-22T17:09:03.051Z,8.95
2022-10-22T17:11:34.819Z,7.97
2022-10-22T17:14:03.075Z,7.10
2022-10-22T17:16:30.736Z,12.50
2022-10-22T17:18:58.261Z,11.43
2022-10-22T17:21:25.867Z,9.98
2022-10-22T17:23:56.938Z,10.60
2022-10-22T17:26:26.919Z,10.73
2022-10-22T17:28:54.890Z,8.50
2022-10-22T17:31:24.952Z,11.00
2022-10-22T17:33:54.157Z,10.23
2022-10-22T17:38:50.561Z,9.68
2022-10-22T17:41:20.345Z,11.95
2022-10-22T17:43:48.356Z,7.93
2022-10-22T17:46:18.677Z,8.85
2022-10-22T17:48:50.149Z,9.50
2022-10-22T17:51:17.634Z,12.60
2022-10-22T17:53:46.076Z,12.88
2022-10-22T17:56:16.027Z,9.60
2022-10-22T17:58:43.321Z,11.10
2022-10-22T18:01:29.928Z,10.18
2022-10-22T18:04:00.919Z,9.82
2022-10-22T18:06:28.742Z,9.15
2022-10-22T18:08:56.157Z,14.52
2022-10-22T18:11:25.556Z,10.18
2022-10-22T18:13:54.605Z,11.10
2022-10-22T18:16:21.890Z,14.07
2022-10-22T18:18:50.569Z,11.73
2022-10-22T18:21:17.912Z,11.27
2022-10-22T18:23:45.764Z,12.63
2022-10-22T18:26:13.710Z,11.63
2022-10-22T18:28:40.992Z,13.52
2022-10-22T18:31:09.248Z,11.82
2022-10-22T18:33:37.602Z,12.75
2022-10-22T18:36:10.406Z,14.27
2022-10-22T18:38:41.075Z,13.82
2022-10-22T18:41:13.134Z,13.95
2022-10-22T18:43:40.353Z,13.65
2022-10-22T18:46:07.964Z,13.95
2022-10-22T18:48:36.131Z,14.13
2022-10-22T18:51:08.626Z,16.58
2022-10-22T18:53:37.109Z,14.23
2022-10-22T18:56:09.244Z,13.18
2022-10-22T18:58:40.259Z,11.95
2022-10-22T19:01:13.131Z,13.30
2022-10-22T19:03:40.754Z,14.77
2022-10-22T19:06:08.539Z,13.85
2022-10-22T19:08:36.951Z,12.90
2022-10-22T19:11:10.198Z,11.25
2022-10-22T19:13:37.421Z,13.10
2022-10-22T19:16:06.370Z,12.75
2022-10-22T19:18:33.671Z,14.32
2022-10-22T19:21:01.964Z,15.13
2022-10-22T19:23:32.500Z,14.65
2022-10-22T19:26:00.741Z,14.00
2022-10-22T19:28:27.993Z,11.48
2022-10-22T19:30:55.400Z,15.98
2022-10-22T19:33:22.627Z,13.55
2022-10-22T19:35:50.182Z,13.35
2022-10-22T19:38:17.398Z,13.32
2022-10-22T19:40:44.638Z,15.05
2022-10-22T19:43:13.532Z,14.88
2022-10-22T19:45:42.799Z,13.85
2022-10-22T19:48:10.125Z,16.83
2022-10-22T19:50:37.380Z,17.67
2022-10-22T19:53:04.646Z,16.75
2022-10-22T19:55:31.907Z,17.15
2022-10-22T19:57:59.128Z,15.57
2022-10-22T20:00:26.565Z,15.15
2022-10-22T20:02:53.774Z,17.08
2022-10-22T20:05:20.998Z,18.73
2022-10-22T20:07:48.265Z,13.75
2022-10-22T20:10:15.556Z,16.38
2022-10-22T20:12:42.765Z,18.00
2022-10-22T20:15:10.033Z,18.30
2022-10-22T20:17:37.320Z,16.10
2022-10-22T20:20:04.783Z,17.83
2022-10-22T20:22:32.009Z,15.88
2022-10-22T20:24:59.267Z,19.83
2022-10-22T20:27:26.504Z,19.73
2022-10-22T20:29:53.773Z,18.08
2022-10-22T20:32:22.143Z,17.10
2022-10-22T20:34:49.359Z,19.48
2022-10-22T20:37:16.623Z,15.63
2022-10-22T20:39:43.873Z,15.00
2022-10-22T20:42:11.121Z,18.15
2022-10-22T20:44:38.336Z,17.42
2022-10-22T20:47:05.586Z,16.23
2022-10-22T20:49:33.147Z,14.60
2022-10-22T20:52:00.460Z,19.35
2022-10-22T20:54:27.868Z,18.70
2022-10-22T20:56:55.124Z,15.23
2022-10-22T20:59:22.403Z,13.85
2022-10-22T21:01:53.523Z,17.38
2022-10-22T21:04:21.394Z,12.60
2022-10-22T21:06:50.235Z,17.25
2022-10-22T21:09:17.548Z,16.40
2022-10-22T21:11:45.169Z,13.80
2022-10-22T21:14:14.129Z,16.92
2022-10-22T21:16:42.314Z,16.13
2022-10-22T21:19:09.584Z,13.00
2022-10-22T21:21:36.815Z,17.00
2022-10-22T21:24:04.152Z,15.73
2022-10-22T21:26:31.431Z,18.08
2022-10-22T21:29:00.098Z,13.65
2022-10-22T21:31:27.863Z,18.98
2022-10-22T21:33:55.080Z,13.48
2022-10-22T21:36:23.622Z,14.63
2022-10-22T21:38:52.112Z,15.70
2022-10-22T21:41:20.068Z,16.85
2022-10-22T21:43:47.519Z,17.80
2022-10-22T21:46:25.850Z,17.23
2022-10-22T21:48:58.411Z,15.43
2022-10-22T21:51:25.829Z,17.25
2022-10-22T21:53:53.459Z,16.90
2022-10-22T21:56:25.107Z,18.83
2022-10-22T21:58:52.545Z,17.30
2022-10-22T22:01:20.055Z,17.25
2022-10-22T22:03:49.160Z,16.92
2022-10-22T22:06:21.175Z,15.40
2022-10-22T22:08:50.175Z,17.65
2022-10-22T22:11:18.668Z,14.18
2022-10-22T22:13:46.078Z,15.13
2022-10-22T22:16:15.726Z,16.00
2022-10-22T22:18:43.180Z,15.60
2022-10-22T22:21:16.270Z,13.40
2022-10-22T22:23:45.147Z,14.32
2022-10-22T22:26:13.311Z,16.08
2022-10-22T22:28:40.529Z,15.98
2022-10-22T22:31:22.223Z,14.88
2022-10-22T22:33:49.469Z,14.25
2022-10-22T22:36:16.717Z,15.10
2022-10-22T22:38:43.924Z,14.98
2022-10-22T22:41:11.299Z,16.17
2022-10-22T22:43:38.560Z,15.60
2022-10-22T22:46:09.852Z,15.75
2022-10-22T22:48:37.114Z,15.52
2022-10-22T22:51:05.707Z,13.45
2022-10-22T22:53:34.513Z,18.52
2022-10-22T22:56:13.801Z,15.52
2022-10-22T22:58:41.590Z,16.73
2022-10-22T23:01:25.630Z,17.98
2022-10-22T23:03:54.365Z,15.60
2022-10-22T23:06:22.641Z,17.02
2022-10-22T23:08:51.980Z,15.75
2022-10-22T23:11:20.172Z,15.52
2022-10-22T23:13:47.640Z,16.10
2022-10-22T23:16:20.169Z,14.00
2022-10-22T23:18:48.696Z,14.32
2022-10-22T23:21:18.528Z,13.57
2022-10-22T23:23:46.901Z,15.30
2022-10-22T23:26:17.425Z,15.45
2022-10-22T23:28:44.694Z,16.30
2022-10-22T23:31:13.988Z,16.02
2022-10-22T23:33:41.541Z,16.48
2022-10-22T23:36:09.309Z,13.05
2022-10-22T23:38:37.532Z,16.17
2022-10-22T23:41:05.126Z,18.05
2022-10-22T23:43:32.525Z,17.23
2022-10-22T23:45:59.853Z,16.60
2022-10-22T23:48:27.113Z,15.85
2022-10-22T23:50:54.401Z,17.00
2022-10-22T23:53:21.641Z,14.18
2022-10-22T23:55:48.885Z,15.18
2022-10-22T23:58:17.259Z,15.25
